Benguela Stream — PENR — position and weather

sailwx.info

Track history (hours):
 
Tides and Currents Weather Stations Pressure Air Temp Water Temp Dewpoint Dewpoint Depression Visibility Wind Speed Wind Dir Waves Ship Positions

Benguela Stream

Last reported at 2015-Jun-27 20:22 UTC. Time now 2015-Jul-02 00:58 UTC.
Position N 39°15' W 031°47'.

Length 150 m; beam 13 m.

Type: Ship (hazmat cat D). MMSI: 244455000.

Date/timePositionNaut miles runAvg speedWind from/ knotsBaromVisibWave heightAir tempDewpointWater temp
2015-Jun-27 20:22N 39°15' W 031°47'1518.2
2015-Jun-27 19:31N 39°25' W 031°32'1919.9
2015-Jun-27 18:34N 39°36' W 031°11'31919.9
2015-Jun-27 02:33N 42°22' W 025°11'5220.3
2015-Jun-27 00:00N 42°42' W 024°06'23819.8 220 / 111019.910.8 1.519.517.4
2015-Jun-26 12:00N 44°36' W 019°18'11118.5 120 / 161021.510.8 1.519.514.9
2015-Jun-26 06:00N 45°36' W 017°06'20116.7 290 / 151019.7 5.4 2.016.914.3
2015-Jun-25 18:00N 47°36' W 013°12'9615.9 190 / 251012.9 0.5 2.517.016.0
2015-Jun-25 12:00N 48°12' W 011°00'12320.4 210 / 141016.8 5.4 1.517.615.2
2015-Jun-25 06:00N 48°54' W 008°06'18918.1 190 / 71020.7 5.4 0.516.014.8
2015-Jun-24 19:33N 49°52' W 003°30'2119.8
2015-Jun-24 18:29N 49°58' W 002°58'1428.9
2015-Jun-24 18:00N 50°00' W 002°36'510.5 180 / 21021.7 5.4 15.214.5
2015-Jun-24 17:33N 50°02' W 002°30'2019.5
2015-Jun-24 16:33N 50°04' W 001°60'3617.9
2015-Jun-24 14:33N 49°51' W 001°08'1717.2
2015-Jun-24 13:33N 49°43' W 000°44'1817.6
2015-Jun-24 12:33N 49°36' W 000°20'1515.3
2015-Jun-24 11:33N 49°30' E 000°02'5 4.5
2015-Jun-24 10:31N 49°28' E 000°09'0 0.0
2015-Jun-24 09:31N 49°28' E 000°09'0 0.0
2015-Jun-24 08:31N 49°28' E 000°09'0 0.0
2015-Jun-24 07:31N 49°28' E 000°09'0 0.0
2015-Jun-24 06:31N 49°28' E 000°09'0 0.0
2015-Jun-24 05:31N 49°28' E 000°09'0 0.0
2015-Jun-24 04:31N 49°28' E 000°09'2 2.4
2015-Jun-24 03:33N 49°29' E 000°06'1010.3
2015-Jun-24 02:33N 49°32' W 000°10'8 7.8
2015-Jun-24 01:33N 49°39' W 000°15'8 8.2
2015-Jun-24 00:33N 49°46' W 000°21'8 8.2
2015-Jun-23 23:33N 49°53' W 000°27'12 9.7
2015-Jun-23 22:17N 50°04' W 000°35'1211.8
2015-Jun-23 21:17N 50°14' W 000°46'1211.6
2015-Jun-23 20:12N 50°26' W 000°53'812.2
2015-Jun-23 19:33N 50°33' W 000°57'612.1
2015-Jun-23 19:06N 50°39' W 000°59'11 0.5
2015-Jun-22 19:32N 50°49' W 001°05'0 0.0
2015-Jun-22 18:32N 50°49' W 001°05'0 0.0
2015-Jun-22 17:32N 50°49' W 001°05'0 0.0
2015-Jun-22 16:32N 50°49' W 001°05'0 0.0
2015-Jun-22 15:32N 50°49' W 001°05'0 0.0
2015-Jun-22 14:32N 50°49' W 001°05'0 0.0
2015-Jun-22 13:32N 50°49' W 001°05'0 0.0
2015-Jun-22 12:29N 50°49' W 001°05'0 0.0
2015-Jun-22 11:32N 50°49' W 001°05'0 0.0
2015-Jun-22 10:32N 50°49' W 001°05'0 0.0
2015-Jun-22 09:32N 50°49' W 001°05'0 0.0
2015-Jun-22 08:32N 50°49' W 001°05'0 0.0
2015-Jun-22 07:32N 50°49' W 001°05'0 0.0
2015-Jun-22 06:32N 50°49' W 001°05'0 0.0
2015-Jun-22 05:32N 50°49' W 001°05'0 0.0
2015-Jun-22 04:32N 50°49' W 001°05'0 0.0
2015-Jun-22 03:32N 50°49' W 001°05'0 0.0
2015-Jun-22 02:32N 50°49' W 001°05'0 0.0
2015-Jun-22 01:32N 50°49' W 001°05'0 0.0
2015-Jun-22 00:32N 50°49' W 001°05'0 0.0
2015-Jun-21 23:32N 50°49' W 001°05'0 0.0
2015-Jun-21 22:32N 50°49' W 001°05'0 0.0
2015-Jun-21 21:32N 50°49' W 001°05'2 1.6
2015-Jun-21 20:33N 50°47' W 001°06'8 8.1
2015-Jun-21 19:33N 50°41' W 000°58'1514.7
2015-Jun-21 18:33N 50°30' W 001°15'915.4
2015-Jun-21 18:00N 50°24' W 001°24'1124.4 230 / 161017.410.8 2.014.812.2
2015-Jun-21 17:33N 50°26' W 001°40'1616.3
2015-Jun-21 16:33N 50°22' W 002°05'1716.5
2015-Jun-21 15:33N 50°17' W 002°30'1717.4
2015-Jun-21 14:33N 50°12' W 002°56'1818.3
2015-Jun-21 13:33N 50°08' W 003°24'97619.7
2015-Jun-19 12:00N 46°36' W 027°18'   1028.510.8 19.215.116.9
Track history (hours):
 
Tides and Currents Weather Stations Pressure Air Temp Water Temp Dewpoint Dewpoint Depression Visibility Wind Speed Wind Dir Waves Ship Positions

Benguela Stream

Last reported at 2015-Jun-27 20:22 UTC. Time now 2015-Jul-02 00:58 UTC.
Position N 39°15' W 031°47'.

Length 150 m; beam 13 m.

Type: Ship (hazmat cat D). MMSI: 244455000.

Date/timePositionNaut miles runAvg speedWind from/ knotsBaromVisibWave heightAir tempDewpointWater temp
2015-Jun-27 20:22N 39°15' W 031°47'1518.2
2015-Jun-27 19:31N 39°25' W 031°32'1919.9
2015-Jun-27 18:34N 39°36' W 031°11'31919.9
2015-Jun-27 02:33N 42°22' W 025°11'5220.3
2015-Jun-27 00:00N 42°42' W 024°06'23819.8 220 / 111019.910.8 1.519.517.4
2015-Jun-26 12:00N 44°36' W 019°18'11118.5 120 / 161021.510.8 1.519.514.9
2015-Jun-26 06:00N 45°36' W 017°06'20116.7 290 / 151019.7 5.4 2.016.914.3
2015-Jun-25 18:00N 47°36' W 013°12'9615.9 190 / 251012.9 0.5 2.517.016.0
2015-Jun-25 12:00N 48°12' W 011°00'12320.4 210 / 141016.8 5.4 1.517.615.2
2015-Jun-25 06:00N 48°54' W 008°06'18918.1 190 / 71020.7 5.4 0.516.014.8
2015-Jun-24 19:33N 49°52' W 003°30'2119.8
2015-Jun-24 18:29N 49°58' W 002°58'1428.9
2015-Jun-24 18:00N 50°00' W 002°36'510.5 180 / 21021.7 5.4 15.214.5
2015-Jun-24 17:33N 50°02' W 002°30'2019.5
2015-Jun-24 16:33N 50°04' W 001°60'3617.9
2015-Jun-24 14:33N 49°51' W 001°08'1717.2
2015-Jun-24 13:33N 49°43' W 000°44'1817.6
2015-Jun-24 12:33N 49°36' W 000°20'1515.3
2015-Jun-24 11:33N 49°30' E 000°02'5 4.5
2015-Jun-24 10:31N 49°28' E 000°09'0 0.0
2015-Jun-24 09:31N 49°28' E 000°09'0 0.0
2015-Jun-24 08:31N 49°28' E 000°09'0 0.0
2015-Jun-24 07:31N 49°28' E 000°09'0 0.0
2015-Jun-24 06:31N 49°28' E 000°09'0 0.0
2015-Jun-24 05:31N 49°28' E 000°09'0 0.0
2015-Jun-24 04:31N 49°28' E 000°09'2 2.4
2015-Jun-24 03:33N 49°29' E 000°06'1010.3
2015-Jun-24 02:33N 49°32' W 000°10'8 7.8
2015-Jun-24 01:33N 49°39' W 000°15'8 8.2
2015-Jun-24 00:33N 49°46' W 000°21'8 8.2
2015-Jun-23 23:33N 49°53' W 000°27'12 9.7
2015-Jun-23 22:17N 50°04' W 000°35'1211.8
2015-Jun-23 21:17N 50°14' W 000°46'1211.6
2015-Jun-23 20:12N 50°26' W 000°53'812.2
2015-Jun-23 19:33N 50°33' W 000°57'612.1
2015-Jun-23 19:06N 50°39' W 000°59'11 0.5
2015-Jun-22 19:32N 50°49' W 001°05'0 0.0
2015-Jun-22 18:32N 50°49' W 001°05'0 0.0
2015-Jun-22 17:32N 50°49' W 001°05'0 0.0
2015-Jun-22 16:32N 50°49' W 001°05'0 0.0
2015-Jun-22 15:32N 50°49' W 001°05'0 0.0
2015-Jun-22 14:32N 50°49' W 001°05'0 0.0
2015-Jun-22 13:32N 50°49' W 001°05'0 0.0
2015-Jun-22 12:29N 50°49' W 001°05'0 0.0
2015-Jun-22 11:32N 50°49' W 001°05'0 0.0
2015-Jun-22 10:32N 50°49' W 001°05'0 0.0
2015-Jun-22 09:32N 50°49' W 001°05'0 0.0
2015-Jun-22 08:32N 50°49' W 001°05'0 0.0
2015-Jun-22 07:32N 50°49' W 001°05'0 0.0
2015-Jun-22 06:32N 50°49' W 001°05'0 0.0
2015-Jun-22 05:32N 50°49' W 001°05'0 0.0
2015-Jun-22 04:32N 50°49' W 001°05'0 0.0
2015-Jun-22 03:32N 50°49' W 001°05'0 0.0
2015-Jun-22 02:32N 50°49' W 001°05'0 0.0
2015-Jun-22 01:32N 50°49' W 001°05'0 0.0
2015-Jun-22 00:32N 50°49' W 001°05'0 0.0
2015-Jun-21 23:32N 50°49' W 001°05'0 0.0
2015-Jun-21 22:32N 50°49' W 001°05'0 0.0
2015-Jun-21 21:32N 50°49' W 001°05'2 1.6
2015-Jun-21 20:33N 50°47' W 001°06'8 8.1
2015-Jun-21 19:33N 50°41' W 000°58'1514.7
2015-Jun-21 18:33N 50°30' W 001°15'915.4
2015-Jun-21 18:00N 50°24' W 001°24'1124.4 230 / 161017.410.8 2.014.812.2
2015-Jun-21 17:33N 50°26' W 001°40'1616.3
2015-Jun-21 16:33N 50°22' W 002°05'1716.5
2015-Jun-21 15:33N 50°17' W 002°30'1717.4
2015-Jun-21 14:33N 50°12' W 002°56'1818.3
2015-Jun-21 13:33N 50°08' W 003°24'97619.7
2015-Jun-19 12:00N 46°36' W 027°18'   1028.510.8 19.215.116.9

Dump ship's entire track history